sensor_id;sensor_type;location;lat;lon;timestamp;temperature;humidity
78297;DHT22;67555;47.660;19.622;2023-03-01T00:01:23;5.40;60.70
78297;DHT22;67555;47.660;19.622;2023-03-01T00:03:50;5.50;60.50
78297;DHT22;67555;47.660;19.622;2023-03-01T00:06:16;5.50;60.20
78297;DHT22;67555;47.660;19.622;2023-03-01T00:08:42;5.60;60.00
78297;DHT22;67555;47.660;19.622;2023-03-01T00:11:14;5.70;59.80
78297;DHT22;67555;47.660;19.622;2023-03-01T00:13:41;5.70;59.60
78297;DHT22;67555;47.660;19.622;2023-03-01T00:16:13;5.70;59.60
78297;DHT22;67555;47.660;19.622;2023-03-01T00:18:39;5.70;59.60
78297;DHT22;67555;47.660;19.622;2023-03-01T00:21:05;5.60;59.80
78297;DHT22;67555;47.660;19.622;2023-03-01T00:23:33;5.60;59.80
78297;DHT22;67555;47.660;19.622;2023-03-01T00:25:59;5.60;59.80
78297;DHT22;67555;47.660;19.622;2023-03-01T00:28:25;5.60;59.80
78297;DHT22;67555;47.660;19.622;2023-03-01T00:30:51;5.60;59.70
78297;DHT22;67555;47.660;19.622;2023-03-01T00:33:17;5.70;59.60
78297;DHT22;67555;47.660;19.622;2023-03-01T00:35:43;5.70;59.50
78297;DHT22;67555;47.660;19.622;2023-03-01T00:38:09;5.80;59.20
78297;DHT22;67555;47.660;19.622;2023-03-01T00:40:35;5.90;59.00
78297;DHT22;67555;47.660;19.622;2023-03-01T00:43:01;5.90;59.00
78297;DHT22;67555;47.660;19.622;2023-03-01T00:45:27;5.80;59.10
78297;DHT22;67555;47.660;19.622;2023-03-01T00:47:53;5.80;59.20
78297;DHT22;67555;47.660;19.622;2023-03-01T00:50:19;5.90;59.00
78297;DHT22;67555;47.660;19.622;2023-03-01T00:52:45;6.00;58.70
78297;DHT22;67555;47.660;19.622;2023-03-01T00:55:11;6.10;58.60
78297;DHT22;67555;47.660;19.622;2023-03-01T00:57:38;6.10;58.30
78297;DHT22;67555;47.660;19.622;2023-03-01T01:00:07;6.10;58.30
78297;DHT22;67555;47.660;19.622;2023-03-01T01:02:35;6.00;58.30
78297;DHT22;67555;47.660;19.622;2023-03-01T01:05:01;6.00;58.50
78297;DHT22;67555;47.660;19.622;2023-03-01T01:07:26;5.90;58.70
78297;DHT22;67555;47.660;19.622;2023-03-01T01:09:52;5.90;58.80
78297;DHT22;67555;47.660;19.622;2023-03-01T01:12:18;5.90;58.80
78297;DHT22;67555;47.660;19.622;2023-03-01T01:14:44;6.00;58.70
78297;DHT22;67555;47.660;19.622;2023-03-01T01:17:10;6.10;58.50
78297;DHT22;67555;47.660;19.622;2023-03-01T01:19:35;6.20;58.30
78297;DHT22;67555;47.660;19.622;2023-03-01T01:22:01;6.40;58.00
78297;DHT22;67555;47.660;19.622;2023-03-01T01:24:27;6.50;57.70
78297;DHT22;67555;47.660;19.622;2023-03-01T01:26:53;6.50;57.30
78297;DHT22;67555;47.660;19.622;2023-03-01T01:29:19;6.60;57.10
78297;DHT22;67555;47.660;19.622;2023-03-01T01:31:44;6.70;56.90
78297;DHT22;67555;47.660;19.622;2023-03-01T01:34:15;6.80;56.80
78297;DHT22;67555;47.660;19.622;2023-03-01T01:36:41;6.80;56.60
78297;DHT22;67555;47.660;19.622;2023-03-01T01:39:07;6.80;56.60
78297;DHT22;67555;47.660;19.622;2023-03-01T01:41:33;6.90;56.40
78297;DHT22;67555;47.660;19.622;2023-03-01T01:44:28;6.80;56.60
78297;DHT22;67555;47.660;19.622;2023-03-01T01:47:03;6.80;56.60
78297;DHT22;67555;47.660;19.622;2023-03-01T01:49:53;6.90;56.50
78297;DHT22;67555;47.660;19.622;2023-03-01T01:52:26;6.90;56.40
78297;DHT22;67555;47.660;19.622;2023-03-01T01:55:15;7.00;56.40
78297;DHT22;67555;47.660;19.622;2023-03-01T01:57:51;7.00;56.20
78297;DHT22;67555;47.660;19.622;2023-03-01T02:00:22;7.00;56.20
78297;DHT22;67555;47.660;19.622;2023-03-01T02:02:53;7.00;56.10
78297;DHT22;67555;47.660;19.622;2023-03-01T02:05:22;7.00;56.00
78297;DHT22;67555;47.660;19.622;2023-03-01T02:07:50;7.00;56.20
78297;DHT22;67555;47.660;19.622;2023-03-01T02:10:16;6.90;56.40
78297;DHT22;67555;47.660;19.622;2023-03-01T02:12:43;7.00;56.40
78297;DHT22;67555;47.660;19.622;2023-03-01T02:15:09;7.00;56.30
78297;DHT22;67555;47.660;19.622;2023-03-01T02:17:35;7.00;56.10
78297;DHT22;67555;47.660;19.622;2023-03-01T02:20:28;7.00;56.20
78297;DHT22;67555;47.660;19.622;2023-03-01T02:22:58;7.00;56.20
78297;DHT22;67555;47.660;19.622;2023-03-01T02:25:46;7.00;56.00
78297;DHT22;67555;47.660;19.622;2023-03-01T02:30:46;7.00;56.10
78297;DHT22;67555;47.660;19.622;2023-03-01T02:33:32;6.90;56.40
78297;DHT22;67555;47.660;19.622;2023-03-01T02:36:01;6.80;56.70
78297;DHT22;67555;47.660;19.622;2023-03-01T02:38:30;6.80;56.70
78297;DHT22;67555;47.660;19.622;2023-03-01T02:40:56;6.90;56.70
78297;DHT22;67555;47.660;19.622;2023-03-01T02:43:25;6.90;56.50
78297;DHT22;67555;47.660;19.622;2023-03-01T02:45:56;6.90;56.50
78297;DHT22;67555;47.660;19.622;2023-03-01T02:48:22;6.80;56.60
78297;DHT22;67555;47.660;19.622;2023-03-01T02:51:16;6.80;56.70
78297;DHT22;67555;47.660;19.622;2023-03-01T02:56:21;6.90;56.50
78297;DHT22;67555;47.660;19.622;2023-03-01T02:58:47;6.90;56.40
78297;DHT22;67555;47.660;19.622;2023-03-01T03:01:18;6.80;56.50
78297;DHT22;67555;47.660;19.622;2023-03-01T03:03:44;6.50;57.00
78297;DHT22;67555;47.660;19.622;2023-03-01T03:06:10;6.30;57.60
78297;DHT22;67555;47.660;19.622;2023-03-01T03:08:36;6.20;58.00
78297;DHT22;67555;47.660;19.622;2023-03-01T03:11:02;6.10;58.20
78297;DHT22;67555;47.660;19.622;2023-03-01T03:13:27;6.10;58.30
78297;DHT22;67555;47.660;19.622;2023-03-01T03:15:57;6.00;58.40
78297;DHT22;67555;47.660;19.622;2023-03-01T03:18:23;6.00;58.70
78297;DHT22;67555;47.660;19.622;2023-03-01T03:20:52;5.90;58.90
78297;DHT22;67555;47.660;19.622;2023-03-01T03:23:20;5.80;59.20
78297;DHT22;67555;47.660;19.622;2023-03-01T03:25:49;5.60;59.70
78297;DHT22;67555;47.660;19.622;2023-03-01T03:28:15;5.40;60.30
78297;DHT22;67555;47.660;19.622;2023-03-01T03:30:42;5.30;60.70
78297;DHT22;67555;47.660;19.622;2023-03-01T03:33:09;5.10;61.10
78297;DHT22;67555;47.660;19.622;2023-03-01T03:35:48;5.00;61.50
78297;DHT22;67555;47.660;19.622;2023-03-01T03:38:17;5.00;61.70
78297;DHT22;67555;47.660;19.622;2023-03-01T03:41:04;4.90;61.90
78297;DHT22;67555;47.660;19.622;2023-03-01T03:43:32;4.90;62.10
78297;DHT22;67555;47.660;19.622;2023-03-01T03:45:58;4.90;62.10
78297;DHT22;67555;47.660;19.622;2023-03-01T03:48:24;4.90;62.00
78297;DHT22;67555;47.660;19.622;2023-03-01T03:50:53;4.90;62.10
78297;DHT22;67555;47.660;19.622;2023-03-01T03:53:20;4.80;62.30
78297;DHT22;67555;47.660;19.622;2023-03-01T03:55:47;4.80;62.30
78297;DHT22;67555;47.660;19.622;2023-03-01T03:58:15;4.80;62.30
78297;DHT22;67555;47.660;19.622;2023-03-01T04:00:43;4.90;62.30
78297;DHT22;67555;47.660;19.622;2023-03-01T04:03:12;4.90;62.20
78297;DHT22;67555;47.660;19.622;2023-03-01T04:05:39;5.00;62.00
78297;DHT22;67555;47.660;19.622;2023-03-01T04:08:05;5.00;61.90
78297;DHT22;67555;47.660;19.622;2023-03-01T04:10:41;5.10;61.70
78297;DHT22;67555;47.660;19.622;2023-03-01T04:13:10;5.10;61.50
78297;DHT22;67555;47.660;19.622;2023-03-01T04:15:36;5.20;61.40
78297;DHT22;67555;47.660;19.622;2023-03-01T04:18:03;5.20;61.30
78297;DHT22;67555;47.660;19.622;2023-03-01T04:20:32;5.30;61.30
78297;DHT22;67555;47.660;19.622;2023-03-01T04:23:10;5.30;61.20
78297;DHT22;67555;47.660;19.622;2023-03-01T04:25:53;5.30;61.10
78297;DHT22;67555;47.660;19.622;2023-03-01T04:28:26;5.40;60.90
78297;DHT22;67555;47.660;19.622;2023-03-01T04:30:53;5.50;60.70
78297;DHT22;67555;47.660;19.622;2023-03-01T04:33:19;5.30;60.60
78297;DHT22;67555;47.660;19.622;2023-03-01T04:35:45;5.30;60.80
78297;DHT22;67555;47.660;19.622;2023-03-01T04:38:11;5.20;60.90
78297;DHT22;67555;47.660;19.622;2023-03-01T04:40:37;5.20;61.00
78297;DHT22;67555;47.660;19.622;2023-03-01T04:43:04;5.20;61.00
78297;DHT22;67555;47.660;19.622;2023-03-01T04:45:32;5.10;61.00
78297;DHT22;67555;47.660;19.622;2023-03-01T04:47:57;5.10;61.00
78297;DHT22;67555;47.660;19.622;2023-03-01T04:50:24;5.30;60.90
78297;DHT22;67555;47.660;19.622;2023-03-01T04:52:51;5.30;60.70
78297;DHT22;67555;47.660;19.622;2023-03-01T04:55:17;5.30;60.70
78297;DHT22;67555;47.660;19.622;2023-03-01T04:57:43;5.30;60.60
78297;DHT22;67555;47.660;19.622;2023-03-01T05:00:13;5.30;60.50
78297;DHT22;67555;47.660;19.622;2023-03-01T05:02:55;5.30;60.50
78297;DHT22;67555;47.660;19.622;2023-03-01T05:05:28;5.30;60.40
78297;DHT22;67555;47.660;19.622;2023-03-01T05:07:59;5.40;60.30
78297;DHT22;67555;47.660;19.622;2023-03-01T05:10:26;5.30;60.30
78297;DHT22;67555;47.660;19.622;2023-03-01T05:12:54;5.30;60.40
78297;DHT22;67555;47.660;19.622;2023-03-01T05:15:23;5.10;60.50
78297;DHT22;67555;47.660;19.622;2023-03-01T05:17:51;5.00;60.70
78297;DHT22;67555;47.660;19.622;2023-03-01T05:20:17;5.00;60.80
78297;DHT22;67555;47.660;19.622;2023-03-01T05:22:43;5.00;60.90
78297;DHT22;67555;47.660;19.622;2023-03-01T05:25:09;5.00;61.00
78297;DHT22;67555;47.660;19.622;2023-03-01T05:27:35;5.00;61.20
78297;DHT22;67555;47.660;19.622;2023-03-01T05:30:02;5.00;61.20
78297;DHT22;67555;47.660;19.622;2023-03-01T05:32:46;5.00;61.20
78297;DHT22;67555;47.660;19.622;2023-03-01T05:35:13;5.00;61.20
78297;DHT22;67555;47.660;19.622;2023-03-01T05:37:43;5.10;61.00
78297;DHT22;67555;47.660;19.622;2023-03-01T05:40:13;5.20;60.80
78297;DHT22;67555;47.660;19.622;2023-03-01T05:42:46;5.30;60.70
78297;DHT22;67555;47.660;19.622;2023-03-01T05:45:12;5.20;60.60
78297;DHT22;67555;47.660;19.622;2023-03-01T05:47:40;5.10;60.70
78297;DHT22;67555;47.660;19.622;2023-03-01T05:50:14;5.10;60.90
78297;DHT22;67555;47.660;19.622;2023-03-01T05:52:45;5.10;60.80
78297;DHT22;67555;47.660;19.622;2023-03-01T05:55:11;5.20;60.70
78297;DHT22;67555;47.660;19.622;2023-03-01T05:57:37;5.20;60.80
78297;DHT22;67555;47.660;19.622;2023-03-01T06:00:03;5.10;61.00
78297;DHT22;67555;47.660;19.622;2023-03-01T06:02:29;5.00;61.20
78297;DHT22;67555;47.660;19.622;2023-03-01T06:04:55;5.00;61.20
78297;DHT22;67555;47.660;19.622;2023-03-01T06:07:21;5.10;61.20
78297;DHT22;67555;47.660;19.622;2023-03-01T06:09:47;5.10;61.20
78297;DHT22;67555;47.660;19.622;2023-03-01T06:12:12;5.10;61.10
78297;DHT22;67555;47.660;19.622;2023-03-01T06:14:38;5.10;61.30
78297;DHT22;67555;47.660;19.622;2023-03-01T06:17:04;5.10;61.50
78297;DHT22;67555;47.660;19.622;2023-03-01T06:19:29;5.00;61.50
78297;DHT22;67555;47.660;19.622;2023-03-01T06:21:55;5.10;61.60
78297;DHT22;67555;47.660;19.622;2023-03-01T06:24:21;5.00;61.60
78297;DHT22;67555;47.660;19.622;2023-03-01T06:26:46;5.10;61.60
78297;DHT22;67555;47.660;19.622;2023-03-01T06:29:12;5.20;61.50
78297;DHT22;67555;47.660;19.622;2023-03-01T06:31:38;5.30;61.30
78297;DHT22;67555;47.660;19.622;2023-03-01T06:34:03;5.40;61.10
78297;DHT22;67555;47.660;19.622;2023-03-01T06:36:29;5.50;60.90
78297;DHT22;67555;47.660;19.622;2023-03-01T06:38:55;5.50;60.60
78297;DHT22;67555;47.660;19.622;2023-03-01T06:41:21;5.60;60.30
78297;DHT22;67555;47.660;19.622;2023-03-01T06:43:46;5.70;60.30
78297;DHT22;67555;47.660;19.622;2023-03-01T06:46:12;5.90;59.80
78297;DHT22;67555;47.660;19.622;2023-03-01T06:48:38;5.80;59.30
78297;DHT22;67555;47.660;19.622;2023-03-01T06:51:04;5.70;59.40
78297;DHT22;67555;47.660;19.622;2023-03-01T06:53:29;5.80;59.40
78297;DHT22;67555;47.660;19.622;2023-03-01T06:55:59;6.00;59.20
78297;DHT22;67555;47.660;19.622;2023-03-01T06:58:26;6.10;58.90
78297;DHT22;67555;47.660;19.622;2023-03-01T07:00:52;6.20;58.60
78297;DHT22;67555;47.660;19.622;2023-03-01T07:03:17;6.30;58.30
78297;DHT22;67555;47.660;19.622;2023-03-01T07:05:43;6.30;58.40
78297;DHT22;67555;47.660;19.622;2023-03-01T07:08:10;6.30;58.20
78297;DHT22;67555;47.660;19.622;2023-03-01T07:10:36;6.40;57.90
78297;DHT22;67555;47.660;19.622;2023-03-01T07:13:01;6.30;57.70
78297;DHT22;67555;47.660;19.622;2023-03-01T07:15:27;6.30;57.80
78297;DHT22;67555;47.660;19.622;2023-03-01T07:17:53;6.40;57.80
78297;DHT22;67555;47.660;19.622;2023-03-01T07:20:20;6.60;57.60
78297;DHT22;67555;47.660;19.622;2023-03-01T07:22:50;6.90;57.20
78297;DHT22;67555;47.660;19.622;2023-03-01T07:25:16;7.20;56.50
78297;DHT22;67555;47.660;19.622;2023-03-01T07:27:42;7.50;56.10
78297;DHT22;67555;47.660;19.622;2023-03-01T07:30:08;7.60;55.60
78297;DHT22;67555;47.660;19.622;2023-03-01T07:32:34;7.80;55.10
78297;DHT22;67555;47.660;19.622;2023-03-01T07:35:00;8.00;54.80
78297;DHT22;67555;47.660;19.622;2023-03-01T07:37:25;8.20;54.40
78297;DHT22;67555;47.660;19.622;2023-03-01T07:39:51;8.30;54.00
78297;DHT22;67555;47.660;19.622;2023-03-01T07:42:17;8.50;53.70
78297;DHT22;67555;47.660;19.622;2023-03-01T07:44:43;8.40;53.50
78297;DHT22;67555;47.660;19.622;2023-03-01T07:47:08;8.50;53.50
78297;DHT22;67555;47.660;19.622;2023-03-01T07:49:34;8.60;53.20
78297;DHT22;67555;47.660;19.622;2023-03-01T07:52:00;8.80;52.90
78297;DHT22;67555;47.660;19.622;2023-03-01T07:54:25;9.00;52.60
78297;DHT22;67555;47.660;19.622;2023-03-01T07:56:51;9.00;52.50
78297;DHT22;67555;47.660;19.622;2023-03-01T07:59:17;9.00;52.20
78297;DHT22;67555;47.660;19.622;2023-03-01T08:01:43;8.70;52.30
78297;DHT22;67555;47.660;19.622;2023-03-01T08:04:09;8.50;52.70
78297;DHT22;67555;47.660;19.622;2023-03-01T08:06:36;8.50;53.10
78297;DHT22;67555;47.660;19.622;2023-03-01T08:09:02;8.70;53.10
78297;DHT22;67555;47.660;19.622;2023-03-01T08:11:28;8.90;52.60
78297;DHT22;67555;47.660;19.622;2023-03-01T08:13:54;9.00;52.40
78297;DHT22;67555;47.660;19.622;2023-03-01T08:16:20;9.20;52.00
78297;DHT22;67555;47.660;19.622;2023-03-01T08:18:46;9.40;51.70
78297;DHT22;67555;47.660;19.622;2023-03-01T08:21:15;9.50;51.60
78297;DHT22;67555;47.660;19.622;2023-03-01T08:23:41;9.70;51.30
78297;DHT22;67555;47.660;19.622;2023-03-01T08:26:18;9.70;51.00
78297;DHT22;67555;47.660;19.622;2023-03-01T08:28:44;9.80;50.90
78297;DHT22;67555;47.660;19.622;2023-03-01T08:31:15;10.00;50.70
78297;DHT22;67555;47.660;19.622;2023-03-01T08:33:41;10.10;50.60
78297;DHT22;67555;47.660;19.622;2023-03-01T08:36:07;10.20;50.50
78297;DHT22;67555;47.660;19.622;2023-03-01T08:38:34;10.30;50.60
78297;DHT22;67555;47.660;19.622;2023-03-01T08:41:01;10.30;50.50
78297;DHT22;67555;47.660;19.622;2023-03-01T08:43:27;10.30;50.50
78297;DHT22;67555;47.660;19.622;2023-03-01T08:45:53;10.10;50.50
78297;DHT22;67555;47.660;19.622;2023-03-01T08:48:18;10.00;50.90
78297;DHT22;67555;47.660;19.622;2023-03-01T08:50:44;10.00;51.10
78297;DHT22;67555;47.660;19.622;2023-03-01T08:53:10;10.00;51.10
78297;DHT22;67555;47.660;19.622;2023-03-01T08:55:36;10.00;51.00
78297;DHT22;67555;47.660;19.622;2023-03-01T08:58:02;10.00;50.90
78297;DHT22;67555;47.660;19.622;2023-03-01T09:00:28;10.00;50.70
78297;DHT22;67555;47.660;19.622;2023-03-01T09:02:53;10.10;50.50
78297;DHT22;67555;47.660;19.622;2023-03-01T09:05:19;10.10;50.40
78297;DHT22;67555;47.660;19.622;2023-03-01T09:07:45;10.00;50.40
78297;DHT22;67555;47.660;19.622;2023-03-01T09:10:11;9.90;50.20
78297;DHT22;67555;47.660;19.622;2023-03-01T09:12:37;9.90;50.50
78297;DHT22;67555;47.660;19.622;2023-03-01T09:15:03;10.00;50.30
78297;DHT22;67555;47.660;19.622;2023-03-01T09:17:28;9.90;50.00
78297;DHT22;67555;47.660;19.622;2023-03-01T09:19:54;9.80;50.10
78297;DHT22;67555;47.660;19.622;2023-03-01T09:22:20;9.80;50.00
78297;DHT22;67555;47.660;19.622;2023-03-01T09:24:46;10.00;50.00
78297;DHT22;67555;47.660;19.622;2023-03-01T09:27:12;10.00;49.80
78297;DHT22;67555;47.660;19.622;2023-03-01T09:29:39;10.10;49.60
78297;DHT22;67555;47.660;19.622;2023-03-01T09:32:05;10.30;49.30
78297;DHT22;67555;47.660;19.622;2023-03-01T09:34:32;10.30;48.70
78297;DHT22;67555;47.660;19.622;2023-03-01T09:37:17;10.10;48.70
78297;DHT22;67555;47.660;19.622;2023-03-01T09:39:43;10.10;48.90
78297;DHT22;67555;47.660;19.622;2023-03-01T09:42:12;10.20;48.70
78297;DHT22;67555;47.660;19.622;2023-03-01T09:45:21;10.30;48.70
78297;DHT22;67555;47.660;19.622;2023-03-01T09:47:35;10.40;48.50
78297;DHT22;67555;47.660;19.622;2023-03-01T09:52:48;10.70;48.20
78297;DHT22;67555;47.660;19.622;2023-03-01T09:55:17;10.80;48.00
78297;DHT22;67555;47.660;19.622;2023-03-01T10:00:46;10.80;47.60
78297;DHT22;67555;47.660;19.622;2023-03-01T10:06:14;10.40;47.20
78297;DHT22;67555;47.660;19.622;2023-03-01T10:08:59;10.40;47.60
78297;DHT22;67555;47.660;19.622;2023-03-01T10:11:30;10.50;47.30
78297;DHT22;67555;47.660;19.622;2023-03-01T10:16:57;10.60;47.50
78297;DHT22;67555;47.660;19.622;2023-03-01T10:19:38;10.70;47.10
78297;DHT22;67555;47.660;19.622;2023-03-01T10:22:19;10.90;47.00
78297;DHT22;67555;47.660;19.622;2023-03-01T10:24:47;11.10;46.80
78297;DHT22;67555;47.660;19.622;2023-03-01T10:30:22;11.30;46.40
78297;DHT22;67555;47.660;19.622;2023-03-01T10:32:56;11.40;46.40
78297;DHT22;67555;47.660;19.622;2023-03-01T10:35:25;11.50;46.20
78297;DHT22;67555;47.660;19.622;2023-03-01T10:38:07;11.70;46.10
78297;DHT22;67555;47.660;19.622;2023-03-01T10:40:35;11.70;46.00
78297;DHT22;67555;47.660;19.622;2023-03-01T10:43:03;11.70;45.80
78297;DHT22;67555;47.660;19.622;2023-03-01T10:45:31;11.70;45.80
78297;DHT22;67555;47.660;19.622;2023-03-01T10:48:19;11.80;45.80
78297;DHT22;67555;47.660;19.622;2023-03-01T10:51:03;11.70;44.80
78297;DHT22;67555;47.660;19.622;2023-03-01T10:56:05;11.20;45.30
78297;DHT22;67555;47.660;19.622;2023-03-01T10:58:33;11.10;45.50
78297;DHT22;67555;47.660;19.622;2023-03-01T11:01:01;11.30;45.80
78297;DHT22;67555;47.660;19.622;2023-03-01T11:03:31;11.40;45.80
78297;DHT22;67555;47.660;19.622;2023-03-01T11:06:08;11.50;45.50
78297;DHT22;67555;47.660;19.622;2023-03-01T11:08:46;11.70;45.40
78297;DHT22;67555;47.660;19.622;2023-03-01T11:16:39;11.90;45.10
78297;DHT22;67555;47.660;19.622;2023-03-01T11:21:47;12.10;45.00
78297;DHT22;67555;47.660;19.622;2023-03-01T11:24:15;12.20;44.90
78297;DHT22;67555;47.660;19.622;2023-03-01T11:26:45;12.50;44.90
78297;DHT22;67555;47.660;19.622;2023-03-01T11:29:21;12.50;44.60
78297;DHT22;67555;47.660;19.622;2023-03-01T11:31:50;12.60;44.50
78297;DHT22;67555;47.660;19.622;2023-03-01T11:34:21;12.70;44.40
78297;DHT22;67555;47.660;19.622;2023-03-01T11:36:56;12.70;44.30
78297;DHT22;67555;47.660;19.622;2023-03-01T11:39:49;12.70;44.40
78297;DHT22;67555;47.660;19.622;2023-03-01T11:42:50;12.70;44.30
78297;DHT22;67555;47.660;19.622;2023-03-01T11:45:20;12.80;44.30
78297;DHT22;67555;47.660;19.622;2023-03-01T11:50:56;12.90;44.20
78297;DHT22;67555;47.660;19.622;2023-03-01T12:09:32;12.90;44.20
78297;DHT22;67555;47.660;19.622;2023-03-01T12:12:54;13.00;44.10
78297;DHT22;67555;47.660;19.622;2023-03-01T12:18:06;13.30;44.00
78297;DHT22;67555;47.660;19.622;2023-03-01T12:34:52;13.70;43.50
78297;DHT22;67555;47.660;19.622;2023-03-01T12:48:34;14.60;42.00
78297;DHT22;67555;47.660;19.622;2023-03-01T12:51:09;14.90;41.50
78297;DHT22;67555;47.660;19.622;2023-03-01T12:53:40;15.30;41.30
78297;DHT22;67555;47.660;19.622;2023-03-01T12:56:13;15.60;40.90
78297;DHT22;67555;47.660;19.622;2023-03-01T12:59:01;16.00;40.50
78297;DHT22;67555;47.660;19.622;2023-03-01T13:10:15;16.80;39.00
78297;DHT22;67555;47.660;19.622;2023-03-01T13:17:49;17.50;37.90
78297;DHT22;67555;47.660;19.622;2023-03-01T13:20:17;17.60;37.60
78297;DHT22;67555;47.660;19.622;2023-03-01T13:22:46;17.80;37.50
78297;DHT22;67555;47.660;19.622;2023-03-01T13:25:21;17.90;37.30
78297;DHT22;67555;47.660;19.622;2023-03-01T13:27:48;17.90;37.00
78297;DHT22;67555;47.660;19.622;2023-03-01T13:35:57;17.80;36.80
78297;DHT22;67555;47.660;19.622;2023-03-01T13:44:36;17.90;36.40
78297;DHT22;67555;47.660;19.622;2023-03-01T13:52:45;17.80;36.10
78297;DHT22;67555;47.660;19.622;2023-03-01T13:55:36;17.80;35.90
78297;DHT22;67555;47.660;19.622;2023-03-01T13:58:14;17.40;35.70
78297;DHT22;67555;47.660;19.622;2023-03-01T14:00:41;16.70;35.80
78297;DHT22;67555;47.660;19.622;2023-03-01T14:03:18;16.20;36.40
78297;DHT22;67555;47.660;19.622;2023-03-01T14:08:25;15.90;37.10
78297;DHT22;67555;47.660;19.622;2023-03-01T14:21:38;14.90;37.90
78297;DHT22;67555;47.660;19.622;2023-03-01T14:24:04;14.60;38.10
78297;DHT22;67555;47.660;19.622;2023-03-01T14:26:31;14.40;38.40
78297;DHT22;67555;47.660;19.622;2023-03-01T14:28:57;14.20;38.60
78297;DHT22;67555;47.660;19.622;2023-03-01T14:31:39;14.20;38.60
78297;DHT22;67555;47.660;19.622;2023-03-01T14:34:22;14.10;38.80
78297;DHT22;67555;47.660;19.622;2023-03-01T14:36:48;14.00;38.90
78297;DHT22;67555;47.660;19.622;2023-03-01T14:39:24;13.90;39.10
78297;DHT22;67555;47.660;19.622;2023-03-01T14:41:52;13.90;39.30
78297;DHT22;67555;47.660;19.622;2023-03-01T14:44:24;13.80;39.50
78297;DHT22;67555;47.660;19.622;2023-03-01T14:46:55;13.80;39.70
78297;DHT22;67555;47.660;19.622;2023-03-01T14:49:31;13.70;39.80
78297;DHT22;67555;47.660;19.622;2023-03-01T14:52:00;13.70;39.90
78297;DHT22;67555;47.660;19.622;2023-03-01T14:54:40;13.70;40.00
78297;DHT22;67555;47.660;19.622;2023-03-01T14:57:15;13.70;40.00
78297;DHT22;67555;47.660;19.622;2023-03-01T14:59:42;13.70;40.00
78297;DHT22;67555;47.660;19.622;2023-03-01T15:02:13;13.60;40.10
78297;DHT22;67555;47.660;19.622;2023-03-01T15:04:43;13.50;40.10
78297;DHT22;67555;47.660;19.622;2023-03-01T15:07:13;13.50;40.10
78297;DHT22;67555;47.660;19.622;2023-03-01T15:09:39;13.30;40.30
78297;DHT22;67555;47.660;19.622;2023-03-01T15:12:46;13.30;40.50
78297;DHT22;67555;47.660;19.622;2023-03-01T15:15:45;13.30;40.60
78297;DHT22;67555;47.660;19.622;2023-03-01T15:20:42;13.20;40.70
78297;DHT22;67555;47.660;19.622;2023-03-01T15:23:25;13.10;40.80
78297;DHT22;67555;47.660;19.622;2023-03-01T15:25:53;13.10;41.00
78297;DHT22;67555;47.660;19.622;2023-03-01T15:28:28;13.00;41.20
78297;DHT22;67555;47.660;19.622;2023-03-01T15:31:18;12.90;41.50
78297;DHT22;67555;47.660;19.622;2023-03-01T15:33:42;12.80;41.60
78297;DHT22;67555;47.660;19.622;2023-03-01T15:36:36;12.80;41.70
78297;DHT22;67555;47.660;19.622;2023-03-01T15:39:04;12.70;41.80
78297;DHT22;67555;47.660;19.622;2023-03-01T15:41:37;12.60;41.90
78297;DHT22;67555;47.660;19.622;2023-03-01T15:44:27;12.50;42.00
78297;DHT22;67555;47.660;19.622;2023-03-01T15:46:53;12.50;42.00
78297;DHT22;67555;47.660;19.622;2023-03-01T15:52:21;12.30;42.10
78297;DHT22;67555;47.660;19.622;2023-03-01T15:55:01;12.20;42.30
78297;DHT22;67555;47.660;19.622;2023-03-01T15:57:27;12.10;42.50
78297;DHT22;67555;47.660;19.622;2023-03-01T15:59:53;12.00;42.70
78297;DHT22;67555;47.660;19.622;2023-03-01T16:02:20;12.00;42.80
78297;DHT22;67555;47.660;19.622;2023-03-01T16:04:47;11.90;42.90
78297;DHT22;67555;47.660;19.622;2023-03-01T16:07:14;11.90;43.00
78297;DHT22;67555;47.660;19.622;2023-03-01T16:09:40;11.80;43.10
78297;DHT22;67555;47.660;19.622;2023-03-01T16:12:13;11.70;43.20
78297;DHT22;67555;47.660;19.622;2023-03-01T16:14:40;11.60;43.30
78297;DHT22;67555;47.660;19.622;2023-03-01T16:17:05;11.50;43.40
78297;DHT22;67555;47.660;19.622;2023-03-01T16:19:33;11.40;43.50
78297;DHT22;67555;47.660;19.622;2023-03-01T16:21:59;11.20;43.70
78297;DHT22;67555;47.660;19.622;2023-03-01T16:24:24;11.10;43.70
78297;DHT22;67555;47.660;19.622;2023-03-01T16:26:51;11.00;43.90
78297;DHT22;67555;47.660;19.622;2023-03-01T16:29:17;10.90;44.00
78297;DHT22;67555;47.660;19.622;2023-03-01T16:31:43;10.80;44.10
78297;DHT22;67555;47.660;19.622;2023-03-01T16:34:09;10.70;44.20
78297;DHT22;67555;47.660;19.622;2023-03-01T16:36:35;10.60;44.40
78297;DHT22;67555;47.660;19.622;2023-03-01T16:39:02;10.50;44.50
78297;DHT22;67555;47.660;19.622;2023-03-01T16:41:28;10.30;44.80
78297;DHT22;67555;47.660;19.622;2023-03-01T16:43:54;10.20;44.90
78297;DHT22;67555;47.660;19.622;2023-03-01T16:46:23;10.10;45.10
78297;DHT22;67555;47.660;19.622;2023-03-01T16:48:49;10.00;45.20
78297;DHT22;67555;47.660;19.622;2023-03-01T16:51:15;9.90;45.40
78297;DHT22;67555;47.660;19.622;2023-03-01T16:53:41;9.80;45.50
78297;DHT22;67555;47.660;19.622;2023-03-01T16:56:10;9.70;45.70
78297;DHT22;67555;47.660;19.622;2023-03-01T16:58:37;9.60;45.90
78297;DHT22;67555;47.660;19.622;2023-03-01T17:01:09;9.50;46.00
78297;DHT22;67555;47.660;19.622;2023-03-01T17:03:36;9.40;46.10
78297;DHT22;67555;47.660;19.622;2023-03-01T17:06:05;9.40;46.30
78297;DHT22;67555;47.660;19.622;2023-03-01T17:08:31;9.20;46.40
78297;DHT22;67555;47.660;19.622;2023-03-01T17:11:25;9.20;46.50
78297;DHT22;67555;47.660;19.622;2023-03-01T17:13:51;9.20;46.60
78297;DHT22;67555;47.660;19.622;2023-03-01T17:16:18;9.00;46.70
78297;DHT22;67555;47.660;19.622;2023-03-01T17:18:45;9.00;46.80
78297;DHT22;67555;47.660;19.622;2023-03-01T17:21:12;9.00;46.90
78297;DHT22;67555;47.660;19.622;2023-03-01T17:23:40;8.90;47.00
78297;DHT22;67555;47.660;19.622;2023-03-01T17:26:06;8.90;47.10
78297;DHT22;67555;47.660;19.622;2023-03-01T17:28:34;8.80;47.20
78297;DHT22;67555;47.660;19.622;2023-03-01T17:31:04;8.80;47.40
78297;DHT22;67555;47.660;19.622;2023-03-01T17:33:31;8.70;47.50
78297;DHT22;67555;47.660;19.622;2023-03-01T17:35:58;8.60;47.60
78297;DHT22;67555;47.660;19.622;2023-03-01T17:38:24;8.60;47.60
78297;DHT22;67555;47.660;19.622;2023-03-01T17:40:50;8.60;47.80
78297;DHT22;67555;47.660;19.622;2023-03-01T17:43:17;8.50;47.90
78297;DHT22;67555;47.660;19.622;2023-03-01T17:45:45;8.50;48.20
78297;DHT22;67555;47.660;19.622;2023-03-01T17:48:16;8.40;48.40